Time;durP1;ratioP1;P1;durP2;ratioP2;P2;SDS_P1;SDS_P2;PMS_P1;PMS_P2;Temp;Humidity;BMP_temperature;BMP_pressure;BME280_temperature;BME280_humidity;BME280_pressure;Samples;Min_cycle;Max_cycle;Signal;HPM_P1;HPM_P2
2022/12/22 03:25:51;;;;;;;8.40;5.50;;;8.90;48.40;;;;;;4963948;28;20536;-64
2022/12/22 03:28:19;;;;;;;9.17;6.33;;;8.90;48.30;;;;;;4963758;28;20468;-64
2022/12/22 03:30:52;;;;;;;8.67;5.40;;;8.90;48.20;;;;;;4960085;28;20481;-64
2022/12/22 03:33:20;;;;;;;9.73;5.67;;;8.90;48.20;;;;;;4967051;28;20530;-63
2022/12/22 03:35:46;;;;;;;9.30;6.00;;;8.90;48.20;;;;;;4963703;28;20485;-63
2022/12/22 03:38:13;;;;;;;8.80;5.37;;;8.90;47.90;;;;;;4962188;28;20466;-63
2022/12/22 03:40:40;;;;;;;8.80;5.87;;;8.90;47.90;;;;;;4964018;28;20457;-64
2022/12/22 03:48:40;;;;;;;11.63;6.70;;;9.00;47.70;;;;;;4956846;28;21033;-64
2022/12/22 03:51:07;;;;;;;12.07;7.60;;;9.00;47.60;;;;;;4960052;28;20462;-64
2022/12/22 03:53:34;;;;;;;11.50;7.27;;;9.00;47.60;;;;;;4961146;28;20473;-64
2022/12/22 03:56:01;;;;;;;11.93;7.57;;;9.10;47.70;;;;;;4964854;28;20968;-64
2022/12/22 03:58:27;;;;;;;12.47;8.60;;;9.10;47.70;;;;;;4959032;28;21130;-64
2022/12/22 04:01:05;;;;;;;12.50;7.90;;;9.10;47.70;;;;;;4964406;28;20478;-64
2022/12/22 04:03:32;;;;;;;12.13;7.80;;;9.10;47.70;;;;;;4961073;28;20453;-63
2022/12/22 04:06:00;;;;;;;11.77;8.47;;;9.10;47.50;;;;;;4960695;28;20485;-64
2022/12/22 04:08:26;;;;;;;14.63;8.63;;;9.10;47.60;;;;;;4963842;28;20465;-64
2022/12/22 04:13:38;;;;;;;13.10;9.27;;;9.10;47.70;;;;;;4960724;28;20460;-64
2022/12/22 04:16:05;;;;;;;17.07;10.03;;;9.10;47.50;;;;;;4964297;28;20468;-64
2022/12/22 04:18:32;;;;;;;10.97;7.63;;;9.10;47.60;;;;;;4961236;28;20454;-64
2022/12/22 04:21:00;;;;;;;10.63;6.80;;;9.10;47.50;;;;;;4960169;28;20459;-64
2022/12/22 04:23:26;;;;;;;12.20;7.63;;;9.10;47.00;;;;;;4962116;28;20978;-64
2022/12/22 04:25:53;;;;;;;11.33;7.20;;;9.10;47.00;;;;;;4960719;28;20860;-64
2022/12/22 04:28:20;;;;;;;15.93;7.23;;;9.10;47.20;;;;;;4959839;28;20549;-64
2022/12/22 04:30:49;;;;;;;8.93;5.87;;;9.00;47.40;;;;;;4962660;28;20473;-64
2022/12/22 04:33:16;;;;;;;8.70;5.67;;;9.00;47.40;;;;;;4964629;28;20973;-63
2022/12/22 04:35:43;;;;;;;11.20;6.27;;;9.00;47.60;;;;;;4954320;28;20520;-64
2022/12/22 04:38:11;;;;;;;8.93;5.40;;;9.10;47.60;;;;;;4957985;28;21005;-63
2022/12/22 04:40:38;;;;;;;8.77;5.03;;;9.00;47.40;;;;;;4954646;28;20473;-63
2022/12/22 04:43:05;;;;;;;9.30;5.87;;;9.00;47.40;;;;;;4963942;28;21491;-64
2022/12/22 04:45:31;;;;;;;8.73;5.47;;;9.00;47.50;;;;;;4959365;28;21272;-63
2022/12/22 04:47:58;;;;;;;7.50;4.33;;;9.00;47.50;;;;;;4958721;28;21076;-63
2022/12/22 04:50:25;;;;;;;7.80;4.37;;;9.00;47.50;;;;;;4956899;28;20994;-64
2022/12/22 04:52:52;;;;;;;7.93;4.40;;;9.00;47.50;;;;;;4959499;28;20491;-64
2022/12/22 04:55:20;;;;;;;7.93;4.20;;;9.00;47.50;;;;;;4963392;28;20508;-63
2022/12/22 04:57:46;;;;;;;6.90;3.83;;;9.00;47.40;;;;;;4969323;28;20492;-64
2022/12/22 05:00:14;;;;;;;9.23;5.00;;;9.00;47.40;;;;;;4964517;28;20992;-64
2022/12/22 05:02:41;;;;;;;7.87;3.63;;;9.00;47.50;;;;;;4969296;28;20466;-64
2022/12/22 05:05:09;;;;;;;9.07;3.87;;;9.10;47.30;;;;;;4969481;28;20851;-63
2022/12/22 05:07:35;;;;;;;7.40;3.47;;;9.10;47.10;;;;;;4961085;28;21059;-63
2022/12/22 05:10:02;;;;;;;6.20;3.30;;;9.10;47.20;;;;;;4960738;28;20461;-63
2022/12/22 05:15:15;;;;;;;6.17;3.23;;;9.10;47.10;;;;;;4967996;28;21188;-63
2022/12/22 05:17:42;;;;;;;5.70;3.20;;;9.10;47.20;;;;;;4962785;28;20839;-63
2022/12/22 05:20:09;;;;;;;5.43;2.47;;;9.10;47.10;;;;;;4960877;28;20465;-63
2022/12/22 05:22:36;;;;;;;6.70;3.23;;;9.10;46.90;;;;;;4961355;28;20461;-63
2022/12/22 05:25:03;;;;;;;6.07;2.97;;;9.10;46.70;;;;;;4966727;28;20493;-63
2022/12/22 05:27:31;;;;;;;5.97;2.83;;;9.10;46.60;;;;;;4968340;28;20558;-63
2022/12/22 05:29:58;;;;;;;6.83;3.70;;;9.10;46.80;;;;;;4964374;28;20470;-63
2022/12/22 05:32:24;;;;;;;7.17;3.13;;;9.10;46.50;;;;;;4966983;28;21020;-63
2022/12/22 05:34:51;;;;;;;7.43;3.80;;;9.10;46.60;;;;;;4964561;28;20479;-63
2022/12/22 05:37:18;;;;;;;7.10;3.30;;;9.20;46.50;;;;;;4966497;28;20469;-62
2022/12/22 05:39:45;;;;;;;7.23;3.30;;;9.20;46.00;;;;;;4965467;28;20474;-63
2022/12/22 05:42:11;;;;;;;6.90;3.07;;;9.20;46.10;;;;;;4967072;28;20493;-62
2022/12/22 05:44:40;;;;;;;7.47;3.67;;;9.20;45.90;;;;;;4966446;28;20485;-63
2022/12/22 05:47:06;;;;;;;5.57;2.63;;;9.20;45.70;;;;;;4973844;23;20502;-71
2022/12/22 05:49:33;;;;;;;6.17;3.07;;;9.20;45.60;;;;;;4968402;28;20462;-70
2022/12/22 05:52:00;;;;;;;8.80;3.50;;;9.20;45.50;;;;;;4967044;28;20465;-70
2022/12/22 05:54:26;;;;;;;7.50;3.50;;;9.10;45.50;;;;;;4968621;28;20966;-70
2022/12/22 05:56:53;;;;;;;6.70;3.30;;;9.10;45.70;;;;;;4968622;28;20478;-71
2022/12/22 05:59:20;;;;;;;5.77;2.97;;;9.10;45.50;;;;;;4961558;28;20976;-70
2022/12/22 06:01:48;;;;;;;7.70;3.40;;;9.00;45.50;;;;;;4967652;28;20474;-70
2022/12/22 06:04:14;;;;;;;6.07;2.50;;;9.00;45.60;;;;;;4955822;28;20550;-70
2022/12/22 06:06:41;;;;;;;10.10;3.33;;;9.00;45.50;;;;;;4965960;28;20508;-70
2022/12/22 06:09:08;;;;;;;8.03;3.07;;;9.00;45.30;;;;;;4968259;28;20462;-70
2022/12/22 06:11:35;;;;;;;5.30;2.20;;;9.00;45.30;;;;;;4966769;28;20457;-70
2022/12/22 06:14:01;;;;;;;7.87;2.97;;;9.10;45.20;;;;;;4970925;28;20470;-70
2022/12/22 06:16:28;;;;;;;6.10;2.43;;;9.10;45.10;;;;;;4961749;28;20491;-70
2022/12/22 06:18:56;;;;;;;5.90;2.00;;;9.10;45.00;;;;;;4962760;28;20469;-70
2022/12/22 06:21:23;;;;;;;6.40;2.33;;;9.10;44.90;;;;;;4967224;28;20814;-70
2022/12/22 06:23:49;;;;;;;5.53;2.20;;;9.10;44.60;;;;;;4967196;28;20457;-71
2022/12/22 06:26:16;;;;;;;5.40;2.20;;;9.10;44.40;;;;;;4967946;28;20481;-70
2022/12/22 06:28:43;;;;;;;5.43;2.03;;;9.10;44.40;;;;;;4968592;28;20462;-70
2022/12/22 06:31:10;;;;;;;5.90;1.83;;;9.10;44.40;;;;;;4967234;28;20486;-70
2022/12/22 06:33:36;;;;;;;6.67;2.13;;;9.10;44.40;;;;;;4964671;28;20537;-70
2022/12/22 06:36:06;;;;;;;7.80;2.70;;;9.00;44.20;;;;;;4966764;28;20987;-69
2022/12/22 06:38:33;;;;;;;6.60;2.47;;;9.00;44.40;;;;;;4970744;28;20458;-71
2022/12/22 06:41:00;;;;;;;4.67;1.63;;;9.00;44.40;;;;;;4966584;28;20473;-71
2022/12/22 06:43:26;;;;;;;5.90;1.80;;;9.00;44.30;;;;;;4968157;28;20468;-71
2022/12/22 06:45:53;;;;;;;6.40;2.10;;;9.00;44.10;;;;;;4966856;28;20473;-70
2022/12/22 06:48:20;;;;;;;6.37;1.83;;;9.00;44.10;;;;;;4955784;23;20501;-70
2022/12/22 06:50:46;;;;;;;5.90;2.40;;;9.00;44.10;;;;;;4962151;28;20472;-71
2022/12/22 06:53:15;;;;;;;5.70;1.73;;;9.00;44.80;;;;;;4959287;28;20458;-71
2022/12/22 06:55:41;;;;;;;5.53;1.60;;;8.90;44.10;;;;;;4961506;28;20476;-71
2022/12/22 06:58:08;;;;;;;8.30;1.50;;;9.00;44.00;;;;;;4956076;28;20492;-71
2022/12/22 07:00:35;;;;;;;5.50;1.40;;;9.00;43.90;;;;;;4938372;28;20960;-71
2022/12/22 07:03:02;;;;;;;6.37;2.03;;;9.00;43.70;;;;;;4945331;28;20835;-73
2022/12/22 07:05:30;;;;;;;4.83;1.50;;;9.00;43.80;;;;;;4952825;28;20455;-73
2022/12/22 07:07:57;;;;;;;5.00;1.07;;;9.00;43.60;;;;;;4945679;28;20486;-73
2022/12/22 07:13:17;;;;;;;6.13;1.17;;;9.00;43.70;;;;;;4945610;28;20462;-73
2022/12/22 07:15:44;;;;;;;6.43;1.83;;;9.10;43.80;;;;;;4936096;28;20563;-73
2022/12/22 07:18:11;;;;;;;6.33;1.80;;;9.10;43.60;;;;;;4944978;28;20569;-73
2022/12/22 07:20:38;;;;;;;4.70;1.43;;;9.10;43.40;;;;;;4946622;28;20949;-74
2022/12/22 07:23:05;;;;;;;6.10;1.40;;;9.20;43.10;;;;;;4943624;28;20474;-72
2022/12/22 07:25:34;;;;;;;6.57;2.10;;;9.20;42.50;;;;;;4942445;28;20467;-71
2022/12/22 07:28:01;;;;;;;7.73;2.20;;;9.20;41.90;;;;;;4943709;28;20493;-74
2022/12/22 07:30:27;;;;;;;4.77;1.70;;;9.30;41.50;;;;;;4944860;28;20470;-73
2022/12/22 07:32:54;;;;;;;5.63;2.00;;;9.30;41.10;;;;;;4945241;28;20975;-72
2022/12/22 07:35:21;;;;;;;6.23;2.23;;;9.40;40.50;;;;;;4946072;28;20474;-72
2022/12/22 07:37:48;;;;;;;7.37;2.33;;;9.40;40.00;;;;;;4943530;29;20482;-72
2022/12/22 07:40:15;;;;;;;8.77;1.57;;;9.50;39.70;;;;;;4939590;28;20470;-73
2022/12/22 07:42:45;;;;;;;6.70;1.50;;;9.50;39.40;;;;;;4944555;28;20458;-72
2022/12/22 07:45:13;;;;;;;4.33;0.97;;;9.50;39.50;;;;;;4945282;28;20463;-73
2022/12/22 07:47:40;;;;;;;6.27;1.30;;;9.60;39.50;;;;;;4948279;28;20488;-73
2022/12/22 07:50:26;;;;;;;9.80;1.63;;;9.70;39.10;;;;;;4941240;28;20466;-73
2022/12/22 07:52:54;;;;;;;5.57;1.30;;;9.70;38.80;;;;;;4946832;28;20462;-73
2022/12/22 07:55:22;;;;;;;4.60;1.20;;;9.80;38.70;;;;;;4943228;28;20458;-73
2022/12/22 07:57:50;;;;;;;5.43;1.23;;;9.90;39.00;;;;;;4945972;28;20467;-74
2022/12/22 08:00:19;;;;;;;4.87;1.30;;;10.00;38.90;;;;;;4942952;28;20854;-73
2022/12/22 08:02:49;;;;;;;3.80;1.10;;;10.10;38.50;;;;;;4944502;28;20471;-74
2022/12/22 08:05:16;;;;;;;5.30;1.43;;;10.20;38.30;;;;;;4946478;28;20477;-73
2022/12/22 08:07:42;;;;;;;6.13;1.50;;;10.20;38.10;;;;;;4942654;28;20497;-73
2022/12/22 08:10:10;;;;;;;6.60;1.63;;;10.20;37.80;;;;;;4940301;28;20469;-73
2022/12/22 08:12:37;;;;;;;5.83;1.60;;;10.20;37.80;;;;;;4943517;28;20757;-73
2022/12/22 08:15:07;;;;;;;6.67;1.80;;;10.20;37.70;;;;;;4940327;28;20474;-73
2022/12/22 08:17:35;;;;;;;6.13;1.73;;;10.20;37.90;;;;;;4946273;28;20462;-73
2022/12/22 08:20:02;;;;;;;6.37;1.90;;;10.20;38.20;;;;;;4945667;28;20458;-73
2022/12/22 08:22:28;;;;;;;4.83;1.53;;;10.20;38.40;;;;;;4944639;28;20466;-74
2022/12/22 08:24:56;;;;;;;7.73;1.80;;;10.20;38.30;;;;;;4943370;28;20558;-73
2022/12/22 08:27:29;;;;;;;6.93;1.60;;;10.20;38.70;;;;;;4945169;28;20474;-74
2022/12/22 08:29:59;;;;;;;5.10;2.10;;;10.20;38.60;;;;;;4952531;28;21226;-73
2022/12/22 08:32:27;;;;;;;7.10;1.87;;;10.20;38.80;;;;;;4951439;28;20490;-72
2022/12/22 08:34:54;;;;;;;7.03;1.93;;;10.20;38.90;;;;;;4949689;28;20978;-73
2022/12/22 08:37:26;;;;;;;7.07;1.50;;;10.20;38.70;;;;;;4948462;28;20469;-72
2022/12/22 08:39:56;;;;;;;5.07;1.30;;;10.30;38.80;;;;;;4945950;28;20466;-73
2022/12/22 08:42:25;;;;;;;12.43;2.73;;;10.30;38.70;;;;;;4945612;28;20470;-73
2022/12/22 08:44:52;;;;;;;7.57;2.00;;;10.30;38.50;;;;;;4944745;28;20695;-73
2022/12/22 08:47:20;;;;;;;6.73;1.73;;;10.40;38.60;;;;;;4946915;28;20482;-74
2022/12/22 08:49:48;;;;;;;7.17;1.50;;;10.50;38.00;;;;;;4949222;28;20478;-72
2022/12/22 08:52:16;;;;;;;7.23;1.40;;;10.50;37.70;;;;;;4947805;28;20474;-73
2022/12/22 08:54:43;;;;;;;4.10;1.27;;;10.40;37.80;;;;;;4947776;28;20489;-73
2022/12/22 08:57:10;;;;;;;4.97;1.40;;;10.50;37.90;;;;;;4946949;28;20477;-73
2022/12/22 08:59:36;;;;;;;5.80;1.40;;;10.50;37.30;;;;;;4944019;28;20486;-73
2022/12/22 09:02:04;;;;;;;9.73;1.70;;;10.90;37.80;;;;;;4948781;28;20478;-73
2022/12/22 09:04:32;;;;;;;6.33;1.37;;;11.40;36.00;;;;;;4943910;28;20467;-73
2022/12/22 09:07:01;;;;;;;5.53;1.40;;;11.70;34.50;;;;;;4949633;28;20470;-73
2022/12/22 09:09:31;;;;;;;7.30;2.97;;;11.80;33.20;;;;;;4947674;28;20518;-73
2022/12/22 09:11:58;;;;;;;7.90;1.50;;;11.90;32.40;;;;;;4947806;28;20471;-73
2022/12/22 09:14:24;;;;;;;7.43;1.20;;;12.00;32.20;;;;;;4952107;28;20458;-73
2022/12/22 09:16:51;;;;;;;5.00;1.10;;;11.90;31.90;;;;;;4946281;28;20466;-73
2022/12/22 09:19:18;;;;;;;6.90;1.60;;;11.90;32.60;;;;;;4947178;28;20490;-74
2022/12/22 09:21:45;;;;;;;5.40;1.70;;;11.90;32.50;;;;;;4947822;28;20554;-75
2022/12/22 09:24:13;;;;;;;7.20;1.40;;;11.80;32.50;;;;;;4946246;28;23774;-73
2022/12/22 09:26:40;;;;;;;5.40;1.40;;;11.80;32.90;;;;;;4950322;28;20459;-73
2022/12/22 09:29:07;;;;;;;6.70;1.30;;;11.70;32.60;;;;;;4948106;28;21184;-73
2022/12/22 09:31:34;;;;;;;5.50;1.40;;;11.70;33.20;;;;;;4947691;28;20474;-72
2022/12/22 09:34:01;;;;;;;9.00;1.50;;;11.60;33.50;;;;;;4950092;28;20542;-70
2022/12/22 09:36:29;;;;;;;7.67;1.40;;;11.50;33.90;;;;;;4948401;28;20611;-70
2022/12/22 09:38:56;;;;;;;7.00;1.60;;;11.50;34.50;;;;;;4947774;28;20471;-69
2022/12/22 09:41:31;;;;;;;8.53;1.60;;;11.40;34.20;;;;;;4945483;28;20967;-70
2022/12/22 09:44:02;;;;;;;7.10;1.77;;;11.40;34.90;;;;;;4946527;28;20521;-70
2022/12/22 09:46:32;;;;;;;5.07;1.27;;;11.40;34.80;;;;;;4947585;28;20470;-70
2022/12/22 09:48:59;;;;;;;5.27;1.13;;;11.40;34.90;;;;;;4945251;28;20486;-70
2022/12/22 09:51:27;;;;;;;6.07;1.80;;;11.40;34.80;;;;;;4948223;28;20473;-70
2022/12/22 09:53:56;;;;;;;10.80;1.70;;;11.30;35.20;;;;;;4952285;28;20490;-70
2022/12/22 09:56:27;;;;;;;7.70;1.40;;;11.20;36.10;;;;;;4944293;28;20477;-70
2022/12/22 09:58:54;;;;;;;4.83;1.30;;;11.40;36.60;;;;;;4942889;28;20491;-70
2022/12/22 10:01:32;;;;;;;6.90;1.50;;;11.40;35.40;;;;;;4945852;28;20491;-70
2022/12/22 10:04:06;;;;;;;5.37;1.30;;;11.40;35.70;;;;;;4948858;28;20466;-70
2022/12/22 10:06:39;;;;;;;10.67;1.67;;;11.50;35.80;;;;;;4949864;28;20956;-70
2022/12/22 10:09:16;;;;;;;5.60;1.53;;;11.40;35.80;;;;;;4946531;28;21019;-69
2022/12/22 10:11:51;;;;;;;6.47;3.07;;;11.40;36.20;;;;;;4949860;28;20466;-70
2022/12/22 10:14:18;;;;;;;7.50;1.97;;;11.30;36.50;;;;;;4950512;28;20462;-70
2022/12/22 10:16:46;;;;;;;8.30;2.30;;;11.30;37.00;;;;;;4945028;28;20477;-70
2022/12/22 10:19:14;;;;;;;5.03;1.30;;;11.20;37.30;;;;;;4944612;28;20534;-70
2022/12/22 10:21:41;;;;;;;8.10;1.70;;;11.10;38.40;;;;;;4946010;28;20671;-69
2022/12/22 10:24:16;;;;;;;7.80;1.97;;;11.10;38.30;;;;;;4949803;28;20453;-70
2022/12/22 10:26:44;;;;;;;12.47;2.63;;;10.90;38.80;;;;;;4947244;28;20463;-69
2022/12/22 10:29:15;;;;;;;7.80;2.63;;;10.90;39.10;;;;;;4944809;28;21145;-70
2022/12/22 10:31:58;;;;;;;9.20;2.27;;;10.90;39.10;;;;;;4946609;28;20475;-69
2022/12/22 10:34:25;;;;;;;8.33;2.00;;;10.80;39.50;;;;;;4940215;28;20468;-70
2022/12/22 10:36:59;;;;;;;6.60;2.17;;;10.80;39.60;;;;;;4943742;28;20964;-70
2022/12/22 10:39:28;;;;;;;6.50;1.70;;;10.80;39.80;;;;;;4942268;28;20482;-69
2022/12/22 10:41:59;;;;;;;8.00;2.10;;;10.80;39.80;;;;;;4948345;28;20459;-70
2022/12/22 10:44:30;;;;;;;8.07;1.77;;;10.90;39.70;;;;;;4946333;28;20474;-70
2022/12/22 10:46:59;;;;;;;8.50;2.10;;;10.90;39.00;;;;;;4944086;28;20580;-70
2022/12/22 10:49:29;;;;;;;6.70;1.60;;;11.00;38.70;;;;;;4945813;28;20493;-69
2022/12/22 10:52:09;;;;;;;6.97;1.80;;;11.00;38.60;;;;;;4947936;28;20557;-70
2022/12/22 10:54:36;;;;;;;9.80;1.37;;;11.00;38.40;;;;;;4944802;28;20552;-70
2022/12/22 10:57:07;;;;;;;6.47;1.50;;;11.10;37.80;;;;;;4947271;28;20459;-70
2022/12/22 10:59:49;;;;;;;5.90;1.40;;;11.10;37.60;;;;;;4944436;28;20529;-70
2022/12/22 11:02:36;;;;;;;5.90;1.67;;;11.10;37.50;;;;;;4941191;28;20489;-70
2022/12/22 11:05:05;;;;;;;8.30;1.50;;;11.10;36.90;;;;;;4946204;28;20467;-71
2022/12/22 11:07:35;;;;;;;6.20;1.90;;;11.10;36.40;;;;;;4944575;28;20481;-70
2022/12/22 11:10:02;;;;;;;7.97;2.27;;;11.10;36.50;;;;;;4944497;28;20459;-69
2022/12/22 11:12:40;;;;;;;6.30;1.40;;;11.10;36.50;;;;;;4944203;28;20475;-70
2022/12/22 11:15:17;;;;;;;7.00;1.53;;;11.20;36.00;;;;;;4947515;28;20454;-69
2022/12/22 11:17:51;;;;;;;6.60;1.30;;;11.20;35.50;;;;;;4946719;28;20485;-70
2022/12/22 11:20:35;;;;;;;9.23;2.20;;;11.30;35.20;;;;;;4940441;28;20465;-70
2022/12/22 11:23:10;;;;;;;8.97;1.53;;;11.30;35.10;;;;;;4944900;28;20466;-70
2022/12/22 11:25:49;;;;;;;6.40;1.80;;;11.30;34.70;;;;;;4947019;28;20472;-69
2022/12/22 11:28:28;;;;;;;6.23;2.00;;;11.30;34.60;;;;;;4945468;28;20487;-70
2022/12/22 11:31:10;;;;;;;8.90;1.77;;;11.30;34.90;;;;;;4945946;28;20478;-70
2022/12/22 11:33:45;;;;;;;9.80;2.00;;;11.30;35.00;;;;;;4943246;29;20493;-70
2022/12/22 11:36:18;;;;;;;6.97;2.03;;;11.30;34.90;;;;;;4947403;28;20454;-69
2022/12/22 11:38:52;;;;;;;11.77;2.23;;;11.30;35.10;;;;;;4946564;28;20490;-70
2022/12/22 11:41:41;;;;;;;6.07;1.53;;;11.30;35.10;;;;;;4947510;28;20469;-69
2022/12/22 11:44:34;;;;;;;11.03;2.27;;;11.30;35.30;;;;;;4945904;28;20851;-69
2022/12/22 11:47:09;;;;;;;6.33;1.80;;;11.30;35.50;;;;;;4946406;28;20473;-70
2022/12/22 11:50:05;;;;;;;9.53;2.30;;;11.30;35.30;;;;;;4940561;28;20553;-69
2022/12/22 11:52:44;;;;;;;9.30;2.10;;;11.30;35.50;;;;;;4937507;29;20458;-70
2022/12/22 11:55:21;;;;;;;7.23;1.70;;;11.30;35.50;;;;;;4942444;28;20971;-69
2022/12/22 11:58:01;;;;;;;7.70;2.40;;;11.30;35.60;;;;;;4944111;28;20497;-69
2022/12/22 12:00:32;;;;;;;8.27;2.30;;;11.30;35.60;;;;;;4943034;28;20527;-70
2022/12/22 12:03:18;;;;;;;10.50;2.93;;;11.30;35.30;;;;;;4945824;28;20518;-69
2022/12/22 12:06:34;;;;;;;8.60;3.30;;;11.40;35.20;;;;;;4953510;28;20466;-70
2022/12/22 12:09:22;;;;;;;7.93;1.70;;;11.50;34.90;;;;;;4951836;28;20490;-70
2022/12/22 12:11:58;;;;;;;12.60;2.47;;;11.50;34.60;;;;;;4951111;28;20458;-70
2022/12/22 12:14:31;;;;;;;11.90;2.73;;;11.60;34.30;;;;;;4949383;28;20473;-69
2022/12/22 12:17:00;;;;;;;11.90;2.07;;;11.60;33.40;;;;;;4947374;28;20864;-70
2022/12/22 12:19:43;;;;;;;11.97;3.60;;;11.60;33.30;;;;;;4947429;28;20485;-70
2022/12/22 12:22:18;;;;;;;9.83;2.77;;;11.50;33.40;;;;;;4949936;28;20536;-70
2022/12/22 12:24:59;;;;;;;8.27;2.97;;;11.50;33.50;;;;;;4947535;28;20478;-70
2022/12/22 12:27:44;;;;;;;11.53;3.50;;;11.50;34.00;;;;;;4948775;28;20493;-70
2022/12/22 12:30:14;;;;;;;9.37;3.07;;;11.50;33.40;;;;;;4946083;28;20493;-70
2022/12/22 12:32:46;;;;;;;9.33;2.30;;;11.50;33.90;;;;;;4945387;28;20466;-69
2022/12/22 12:35:31;;;;;;;10.83;3.20;;;11.60;33.80;;;;;;4943822;28;20979;-70
2022/12/22 12:38:06;;;;;;;6.80;2.50;;;11.60;33.30;;;;;;4945673;28;20493;-69
2022/12/22 12:40:39;;;;;;;9.53;2.40;;;11.60;32.80;;;;;;4947309;28;20462;-70
2022/12/22 12:43:09;;;;;;;8.03;2.20;;;11.60;32.50;;;;;;4950482;28;20473;-70
2022/12/22 12:45:38;;;;;;;12.13;4.20;;;11.60;32.30;;;;;;4950177;28;20470;-70
2022/12/22 12:48:37;;;;;;;7.30;2.27;;;11.60;32.10;;;;;;4949478;28;20505;-70
2022/12/22 12:51:44;;;;;;;12.43;2.77;;;11.60;32.20;;;;;;4950879;29;20459;-69
2022/12/22 12:54:38;;;;;;;12.43;3.33;;;11.60;31.80;;;;;;4952080;28;20458;-69
2022/12/22 12:57:30;;;;;;;11.93;2.60;;;11.60;32.10;;;;;;4938999;28;20466;-70
2022/12/22 12:59:58;;;;;;;6.93;2.40;;;11.70;32.10;;;;;;4946754;28;21335;-69
2022/12/22 13:02:40;;;;;;;7.77;2.50;;;11.70;31.80;;;;;;4949565;28;20479;-70
2022/12/22 13:05:35;;;;;;;10.57;2.50;;;11.80;31.80;;;;;;4946255;28;21254;-70
2022/12/22 13:08:23;;;;;;;8.37;2.00;;;11.80;31.50;;;;;;4949032;28;20493;-70
2022/12/22 13:11:22;;;;;;;9.27;2.50;;;11.90;31.10;;;;;;4949996;28;20458;-70
2022/12/22 13:13:51;;;;;;;9.23;2.50;;;12.00;31.20;;;;;;4950570;28;21147;-70
2022/12/22 13:16:32;;;;;;;9.67;2.47;;;12.10;31.80;;;;;;4948866;28;20463;-70
2022/12/22 13:19:03;;;;;;;9.37;2.30;;;12.20;31.10;;;;;;4943070;28;20490;-70
2022/12/22 13:21:38;;;;;;;9.83;3.00;;;12.20;30.70;;;;;;4951276;28;20481;-70
2022/12/22 13:24:17;;;;;;;7.27;1.90;;;12.20;30.60;;;;;;4948372;28;20466;-70
2022/12/22 13:26:45;;;;;;;13.97;2.27;;;12.30;29.80;;;;;;4951049;28;20558;-70
2022/12/22 13:29:19;;;;;;;8.00;2.33;;;12.50;29.90;;;;;;4951178;28;20483;-69
2022/12/22 13:31:48;;;;;;;6.53;1.80;;;12.50;28.80;;;;;;4958514;28;20481;-69
2022/12/22 13:34:46;;;;;;;6.33;1.90;;;12.50;28.40;;;;;;4957413;28;20469;-70
2022/12/22 13:37:17;;;;;;;6.20;2.10;;;12.50;28.50;;;;;;4892145;29;20946;-69
2022/12/22 13:40:08;;;;;;;10.30;3.20;;;12.50;28.10;;;;;;4942665;28;20580;-70
2022/12/22 13:42:37;;;;;;;8.07;1.57;;;12.50;27.90;;;;;;4953492;28;20454;-69
2022/12/22 13:45:05;;;;;;;10.53;2.50;;;12.40;27.90;;;;;;4955048;28;20466;-69
2022/12/22 13:47:32;;;;;;;6.87;1.57;;;12.40;28.20;;;;;;4953929;28;20474;-69
2022/12/22 13:49:59;;;;;;;12.17;2.53;;;12.30;27.70;;;;;;4953394;28;20568;-70
2022/12/22 13:52:26;;;;;;;7.03;1.90;;;12.30;28.30;;;;;;4946483;28;20466;-70
2022/12/22 13:54:53;;;;;;;10.93;2.90;;;12.20;28.40;;;;;;4945081;28;20467;-69
2022/12/22 13:57:23;;;;;;;10.60;2.90;;;12.20;28.80;;;;;;4954309;28;20478;-69
2022/12/22 13:59:53;;;;;;;10.20;2.60;;;12.10;29.00;;;;;;4950132;28;20455;-69
2022/12/22 14:02:22;;;;;;;10.17;3.20;;;12.10;29.10;;;;;;4948636;28;20475;-69
2022/12/22 14:05:05;;;;;;;8.73;3.17;;;12.10;28.70;;;;;;4949710;28;20474;-70
2022/12/22 14:07:31;;;;;;;8.20;1.83;;;12.00;28.90;;;;;;4947671;28;20471;-70
2022/12/22 14:09:58;;;;;;;10.83;3.67;;;12.00;28.70;;;;;;4949719;28;20521;-69
2022/12/22 14:12:29;;;;;;;10.70;2.40;;;12.00;29.00;;;;;;4941944;28;20462;-69
2022/12/22 14:14:58;;;;;;;12.27;2.97;;;11.90;29.00;;;;;;4952969;28;20467;-70
2022/12/22 14:17:30;;;;;;;10.47;3.37;;;11.90;29.20;;;;;;4951868;28;20459;-70
2022/12/22 14:19:58;;;;;;;16.80;3.67;;;11.90;29.50;;;;;;4946324;28;20461;-69
2022/12/22 14:22:27;;;;;;;11.77;4.50;;;11.90;29.20;;;;;;4955370;28;20473;-69
2022/12/22 14:24:58;;;;;;;12.83;4.20;;;11.90;29.10;;;;;;4955267;28;20477;-69
2022/12/22 14:27:33;;;;;;;7.87;3.40;;;11.90;29.10;;;;;;4955976;28;20461;-69
2022/12/22 14:30:01;;;;;;;15.83;4.00;;;11.90;29.30;;;;;;4951118;28;20484;-70
2022/12/22 14:32:37;;;;;;;9.13;2.83;;;11.80;29.40;;;;;;4952347;28;21062;-69
2022/12/22 14:35:14;;;;;;;16.50;3.00;;;11.90;29.90;;;;;;4948225;28;20477;-69
2022/12/22 14:37:41;;;;;;;9.93;2.70;;;11.90;29.30;;;;;;4948376;28;20498;-70
2022/12/22 14:40:14;;;;;;;10.27;3.03;;;11.90;29.40;;;;;;4946253;28;20476;-70
2022/12/22 14:42:44;;;;;;;11.13;3.13;;;11.80;29.30;;;;;;4950459;28;20477;-69
2022/12/22 14:45:15;;;;;;;13.73;3.53;;;11.80;29.30;;;;;;4951924;28;20470;-69
2022/12/22 14:47:42;;;;;;;9.07;2.70;;;11.80;29.50;;;;;;4949545;28;20482;-70
2022/12/22 14:50:17;;;;;;;15.60;3.17;;;11.80;29.40;;;;;;4949109;28;20580;-69
2022/12/22 14:52:48;;;;;;;13.57;3.30;;;11.80;29.30;;;;;;4951527;28;20473;-69
2022/12/22 14:55:25;;;;;;;11.60;2.87;;;11.80;29.20;;;;;;4953142;28;20516;-69
2022/12/22 14:57:55;;;;;;;15.60;2.73;;;11.80;28.90;;;;;;4949158;28;20498;-70
2022/12/22 15:00:34;;;;;;;11.87;2.87;;;11.80;29.00;;;;;;4948010;28;20477;-69
2022/12/22 15:03:04;;;;;;;11.20;2.40;;;11.70;29.20;;;;;;4950327;28;20971;-70
2022/12/22 15:05:34;;;;;;;11.83;2.43;;;11.70;29.20;;;;;;4959459;23;20463;-63
2022/12/22 15:08:01;;;;;;;11.93;2.67;;;11.70;29.20;;;;;;4976344;28;20491;-62
2022/12/22 15:10:37;;;;;;;12.57;2.30;;;11.70;29.20;;;;;;4974299;28;20486;-63
2022/12/22 15:13:11;;;;;;;11.90;2.60;;;11.70;29.00;;;;;;4975906;28;20453;-63
2022/12/22 15:15:37;;;;;;;11.80;2.23;;;11.70;28.80;;;;;;4971916;28;20496;-62
2022/12/22 15:18:04;;;;;;;15.17;4.90;;;11.60;28.80;;;;;;4962185;28;20473;-63
2022/12/22 15:20:31;;;;;;;21.27;8.13;;;11.60;28.90;;;;;;4961133;28;20970;-61
2022/12/22 15:22:58;;;;;;;16.37;4.50;;;11.60;28.80;;;;;;4961380;28;20462;-63
2022/12/22 15:25:25;;;;;;;14.50;5.40;;;11.50;29.00;;;;;;4961384;28;20493;-62
2022/12/22 15:27:52;;;;;;;11.60;3.83;;;11.50;29.00;;;;;;4955742;28;21317;-61
2022/12/22 15:30:22;;;;;;;11.47;4.30;;;11.50;28.90;;;;;;4953808;28;20481;-63
2022/12/22 15:32:49;;;;;;;13.50;4.67;;;11.50;29.10;;;;;;4961598;28;21024;-61
2022/12/22 15:35:19;;;;;;;16.50;5.53;;;11.50;29.20;;;;;;4961607;28;20461;-64
2022/12/22 15:37:46;;;;;;;14.33;5.70;;;11.50;29.30;;;;;;4962598;28;20457;-64
2022/12/22 15:40:18;;;;;;;12.03;4.27;;;11.50;29.40;;;;;;4961231;28;20462;-67
2022/12/22 15:42:46;;;;;;;15.23;4.20;;;11.50;29.30;;;;;;4960353;28;20476;-66
2022/12/22 15:45:13;;;;;;;9.70;2.73;;;11.50;29.40;;;;;;4963157;28;21171;-65
2022/12/22 15:47:45;;;;;;;9.27;2.40;;;11.50;29.80;;;;;;4959690;28;20489;-69
2022/12/22 15:50:17;;;;;;;11.77;3.03;;;11.50;29.90;;;;;;4963120;28;20965;-63
2022/12/22 15:52:48;;;;;;;16.07;3.60;;;11.40;30.40;;;;;;4957798;28;20897;-63
2022/12/22 15:55:16;;;;;;;12.40;3.10;;;11.40;30.40;;;;;;4962028;28;20490;-65
2022/12/22 15:57:44;;;;;;;13.80;3.73;;;11.30;30.60;;;;;;4957246;28;20565;-65
2022/12/22 16:00:12;;;;;;;11.00;2.83;;;11.30;31.00;;;;;;4957319;28;20461;-65
2022/12/22 16:02:38;;;;;;;12.00;3.00;;;11.20;31.10;;;;;;4957186;28;20488;-68
2022/12/22 16:05:08;;;;;;;11.80;3.13;;;11.20;31.10;;;;;;4963680;28;20488;-69
2022/12/22 16:07:36;;;;;;;12.63;3.33;;;11.20;31.40;;;;;;4959062;28;20493;-70
2022/12/22 16:10:04;;;;;;;16.40;3.73;;;11.10;31.60;;;;;;4959366;28;22265;-67
2022/12/22 16:12:33;;;;;;;17.37;4.00;;;11.00;32.10;;;;;;4960632;28;20465;-67
2022/12/22 16:15:02;;;;;;;13.50;3.63;;;11.00;32.20;;;;;;4964432;28;20468;-68
2022/12/22 16:17:29;;;;;;;17.87;3.40;;;11.00;32.20;;;;;;4959687;28;20489;-69
2022/12/22 16:19:57;;;;;;;13.27;3.90;;;10.90;32.20;;;;;;4956952;28;20453;-69
2022/12/22 16:22:30;;;;;;;10.97;3.37;;;10.90;32.50;;;;;;4959610;28;20907;-69
2022/12/22 16:24:57;;;;;;;23.23;2.60;;;10.90;32.70;;;;;;4960109;28;20478;-69
2022/12/22 16:27:24;;;;;;;17.00;4.07;;;10.90;32.90;;;;;;4965520;28;20500;-69
2022/12/22 16:29:53;;;;;;;15.60;2.40;;;10.80;33.00;;;;;;4959925;28;20481;-69
2022/12/22 16:32:24;;;;;;;12.83;2.70;;;10.90;33.10;;;;;;4956279;28;20478;-69
2022/12/22 16:34:50;;;;;;;15.60;3.10;;;10.90;33.20;;;;;;4958037;28;20469;-68
2022/12/22 16:37:17;;;;;;;21.20;3.83;;;10.80;33.30;;;;;;4961830;28;20505;-70
2022/12/22 16:39:46;;;;;;;8.33;2.63;;;10.80;33.50;;;;;;4960048;28;20933;-68
2022/12/22 16:42:14;;;;;;;11.73;2.77;;;10.70;33.60;;;;;;4960961;28;20481;-66
2022/12/22 16:44:42;;;;;;;13.73;3.40;;;10.70;33.90;;;;;;4959669;28;20469;-65